createdAt,value
2018-10-11T04:56:49.212Z,97.70
2018-10-11T04:59:22.654Z,97.60
2018-10-11T05:01:56.063Z,97.50
2018-10-11T05:04:29.488Z,97.70
2018-10-11T05:07:02.911Z,97.70
2018-10-11T05:09:36.407Z,97.80
2018-10-11T05:12:09.840Z,98.00
2018-10-11T12:01:17.372Z,95.80
2018-10-11T12:03:51.089Z,95.90
2018-10-11T12:06:24.970Z,96.00
2018-10-11T12:08:58.377Z,96.00
2018-10-11T12:11:31.792Z,95.80
2018-10-11T12:14:05.312Z,96.00
2018-10-11T12:16:39.212Z,96.00
2018-10-11T12:19:12.630Z,95.80
2018-10-11T12:21:46.027Z,95.70
2018-10-11T12:24:19.487Z,95.80
2018-10-11T12:26:52.939Z,95.60
2018-10-11T12:29:26.447Z,95.50
2018-10-11T12:31:59.847Z,95.60
2018-10-11T12:34:33.288Z,95.70
2018-10-11T12:37:06.928Z,95.70
2018-10-11T12:39:40.447Z,95.10
2018-10-11T12:42:13.856Z,95.20
2018-10-11T12:44:47.295Z,95.20
2018-10-11T12:47:20.703Z,95.20
2018-10-11T12:49:54.292Z,95.30
2018-10-11T12:52:27.701Z,95.40
2018-10-11T12:55:01.199Z,95.30
2018-10-11T12:57:34.650Z,95.10
2018-10-11T13:00:09.716Z,95.20
2018-10-11T13:02:43.180Z,95.30
2018-10-11T13:05:16.582Z,95.30
2018-10-11T13:07:50.011Z,95.00
2018-10-11T13:10:23.433Z,95.30
2018-10-11T13:13:06.745Z,95.70
2018-10-11T13:15:30.380Z,95.80
2018-10-11T13:18:03.791Z,96.00
2018-10-11T13:20:37.233Z,96.60
2018-10-11T13:23:13.278Z,95.50
2018-10-11T13:25:44.064Z,96.10
2018-10-11T13:28:17.460Z,96.20
2018-10-11T13:30:50.876Z,96.00
2018-10-11T13:33:24.295Z,96.20
2018-10-11T13:35:57.711Z,96.30
2018-10-11T13:38:31.107Z,96.20
2018-10-11T13:41:04.635Z,96.30
2018-10-11T13:43:38.071Z,96.40
2018-10-11T13:46:11.542Z,96.60
2018-10-11T13:48:44.935Z,96.70
2018-10-11T13:51:18.447Z,96.30
2018-10-11T13:53:57.157Z,96.30
2018-10-11T13:56:26.911Z,96.80
2018-10-11T13:59:00.705Z,96.60
2018-10-11T14:01:33.780Z,96.40
2018-10-11T14:04:07.650Z,96.30
2018-10-11T14:06:41.070Z,96.30
2018-10-11T14:09:15.029Z,95.70
2018-10-11T14:11:48.444Z,95.60
2018-10-11T14:14:21.843Z,95.70
2018-10-11T14:16:55.268Z,95.70
2018-10-11T14:19:28.688Z,95.50
2018-10-11T14:22:02.109Z,95.10
2018-10-11T14:24:35.528Z,94.70
2018-10-11T14:27:08.944Z,94.80
2018-10-11T14:29:42.348Z,94.90
2018-10-11T14:32:15.841Z,94.80
2018-10-11T14:34:49.237Z,95.00
2018-10-11T14:37:23.112Z,94.90
2018-10-11T14:39:56.473Z,94.80
2018-10-11T14:42:29.915Z,94.70
2018-10-11T14:45:03.364Z,94.70
2018-10-11T14:47:36.772Z,95.10
2018-10-11T14:50:10.179Z,95.10
2018-10-11T14:52:43.619Z,95.10
2018-10-11T14:55:17.042Z,95.00
2018-10-11T14:57:50.512Z,95.20
2018-10-11T15:00:23.949Z,95.00
2018-10-11T15:02:57.426Z,95.00
2018-10-11T15:05:30.865Z,94.50
2018-10-11T15:08:04.239Z,94.60
2018-10-11T15:10:37.642Z,94.40
2018-10-11T15:13:11.063Z,94.20
2018-10-11T15:15:44.472Z,94.30
2018-10-11T15:18:17.904Z,94.70
2018-10-11T15:20:51.463Z,94.70
2018-10-11T15:23:24.908Z,94.60
2018-10-11T15:25:58.307Z,94.30
2018-10-11T15:28:31.737Z,94.20
2018-10-11T15:31:05.163Z,94.20
2018-10-11T15:33:38.590Z,94.20
2018-10-11T15:36:11.991Z,94.40
2018-10-11T15:38:45.484Z,94.30
2018-10-11T15:41:18.903Z,94.30
2018-10-11T15:43:52.353Z,94.00
2018-10-11T15:46:25.755Z,94.20
2018-10-11T15:48:59.194Z,94.20
2018-10-11T15:51:32.684Z,94.50
2018-10-11T15:54:06.310Z,94.20
2018-10-11T15:56:39.739Z,94.40
2018-10-11T15:59:13.151Z,94.20
2018-10-11T16:01:46.565Z,94.40
2018-10-11T16:04:19.971Z,94.50
2018-10-11T16:06:53.456Z,94.60
2018-10-11T16:09:26.897Z,94.80
2018-10-11T16:12:00.447Z,95.00
2018-10-11T16:14:33.803Z,95.00
2018-10-11T16:17:07.232Z,94.90
2018-10-11T16:19:40.729Z,94.70
2018-10-11T16:22:14.244Z,94.60
2018-10-11T16:24:47.706Z,94.50
2018-10-11T16:27:21.100Z,94.50
2018-10-11T16:29:54.496Z,94.50
2018-10-11T16:32:28.177Z,94.50
2018-10-11T16:35:01.578Z,94.50
2018-10-11T16:37:35.064Z,94.50
2018-10-11T16:40:08.524Z,94.60
2018-10-11T16:42:41.991Z,94.70
2018-10-11T16:45:15.411Z,94.80
2018-10-11T16:47:48.935Z,94.90
2018-10-11T16:50:22.578Z,94.90
2018-10-11T16:52:56.023Z,94.90
2018-10-11T16:55:29.551Z,95.00
2018-10-11T16:58:03.260Z,95.40
2018-10-11T17:00:37.796Z,95.00
2018-10-11T17:03:11.223Z,95.10
2018-10-11T17:05:44.748Z,95.30
2018-10-11T17:08:18.163Z,95.40
2018-10-11T17:10:51.605Z,95.30
2018-10-11T17:13:25.029Z,95.30
2018-10-11T17:15:58.500Z,95.30
2018-10-11T17:18:31.936Z,95.30
